Time;durP1;ratioP1;P1;durP2;ratioP2;P2;SDS_P1;SDS_P2;PMS_P1;PMS_P2;Temp;Humidity;BMP_temperature;BMP_pressure;BME280_temperature;BME280_humidity;BME280_pressure;Samples;Min_cycle;Max_cycle;Signal;HPM_P1;HPM_P2
2022/10/30 00:01:54;;;;;;;14.27;6.18;;;;;;;;;;4931012;29;20111;-76
2022/10/30 00:04:19;;;;;;;11.95;5.97;;;;;;;;;;4932400;29;20039;-77
2022/10/30 00:06:44;;;;;;;11.50;5.93;;;;;;;;;;4920012;29;20730;-77
2022/10/30 00:09:10;;;;;;;8.85;5.55;;;;;;;;;;4925509;29;20036;-77
2022/10/30 00:11:35;;;;;;;9.98;5.38;;;;;;;;;;4927642;29;20035;-77
2022/10/30 00:14:00;;;;;;;10.35;6.35;;;;;;;;;;4929568;29;20190;-77
2022/10/30 00:16:26;;;;;;;10.30;5.63;;;;;;;;;;4925571;29;20039;-76
2022/10/30 00:18:51;;;;;;;12.38;5.50;;;;;;;;;;4929279;29;20112;-76
2022/10/30 00:21:17;;;;;;;9.95;5.10;;;;;;;;;;4928133;29;20023;-76
2022/10/30 00:23:50;;;;;;;12.85;5.70;;;;;;;;;;4931288;29;20024;-77
2022/10/30 00:26:16;;;;;;;12.60;6.80;;;;;;;;;;4922445;29;20111;-76
2022/10/30 00:28:42;;;;;;;12.27;5.53;;;;;;;;;;4930693;29;20122;-76
2022/10/30 00:31:08;;;;;;;14.18;6.82;;;;;;;;;;4927504;29;20433;-76
2022/10/30 00:33:33;;;;;;;12.63;5.78;;;;;;;;;;4914637;29;20027;-76
2022/10/30 00:35:59;;;;;;;12.07;5.90;;;;;;;;;;4924982;29;20024;-77
2022/10/30 00:38:25;;;;;;;11.35;5.47;;;;;;;;;;4927035;29;20081;-77
2022/10/30 00:40:51;;;;;;;13.35;5.43;;;;;;;;;;4926179;29;20031;-77
2022/10/30 00:43:36;;;;;;;10.95;5.68;;;;;;;;;;4924937;29;20484;-77
2022/10/30 00:46:38;;;;;;;16.45;5.60;;;;;;;;;;4927512;29;20046;-76
2022/10/30 00:49:14;;;;;;;10.68;5.43;;;;;;;;;;4930220;29;20496;-77
2022/10/30 00:51:48;;;;;;;9.82;5.50;;;;;;;;;;4924928;29;20067;-76
2022/10/30 00:54:16;;;;;;;9.43;5.63;;;;;;;;;;4929150;29;20119;-77
2022/10/30 00:56:42;;;;;;;10.25;5.43;;;;;;;;;;4925287;29;20035;-77
2022/10/30 00:59:11;;;;;;;12.43;6.35;;;;;;;;;;4917062;29;20089;-76
2022/10/30 01:01:39;;;;;;;10.30;5.47;;;;;;;;;;4923667;29;20412;-76
2022/10/30 01:04:05;;;;;;;9.70;4.90;;;;;;;;;;4912618;29;20023;-76
2022/10/30 01:06:34;;;;;;;11.43;5.82;;;;;;;;;;4906857;29;22072;-77
2022/10/30 01:09:00;;;;;;;12.25;5.38;;;;;;;;;;4928809;29;20638;-76
2022/10/30 01:11:26;;;;;;;12.18;5.47;;;;;;;;;;4912054;29;20071;-77
2022/10/30 01:13:53;;;;;;;12.82;5.38;;;;;;;;;;4910789;29;20463;-76
2022/10/30 01:16:46;;;;;;;8.50;4.95;;;;;;;;;;4929705;29;20044;-76
2022/10/30 01:19:30;;;;;;;11.43;5.40;;;;;;;;;;4928654;29;20024;-76
2022/10/30 01:22:32;;;;;;;13.45;5.55;;;;;;;;;;4924237;29;20122;-76
2022/10/30 01:25:17;;;;;;;9.80;5.18;;;;;;;;;;4928700;29;20485;-77
2022/10/30 01:28:24;;;;;;;13.82;5.30;;;;;;;;;;4926099;29;20039;-76
2022/10/30 01:31:11;;;;;;;12.38;5.38;;;;;;;;;;4923233;29;20032;-77
2022/10/30 01:33:42;;;;;;;8.98;5.47;;;;;;;;;;4923865;29;20119;-76
2022/10/30 01:36:27;;;;;;;11.38;5.40;;;;;;;;;;4912052;29;20058;-76
2022/10/30 01:39:00;;;;;;;9.07;5.18;;;;;;;;;;4928421;29;20032;-77
2022/10/30 01:41:26;;;;;;;12.02;5.32;;;;;;;;;;4925621;29;20543;-76
2022/10/30 01:43:58;;;;;;;9.38;5.15;;;;;;;;;;4927971;29;20027;-76
2022/10/30 01:46:54;;;;;;;10.10;5.57;;;;;;;;;;4912425;29;20019;-77
2022/10/30 01:49:58;;;;;;;10.50;5.40;;;;;;;;;;4925960;29;20068;-76
2022/10/30 01:52:40;;;;;;;12.45;5.95;;;;;;;;;;4926884;29;20027;-77
2022/10/30 01:55:21;;;;;;;8.38;5.07;;;;;;;;;;4928366;29;20035;-76
2022/10/30 01:58:05;;;;;;;12.00;5.30;;;;;;;;;;4925214;29;20089;-76
2022/10/30 02:00:30;;;;;;;12.00;5.97;;;;;;;;;;4925981;29;20031;-77
2022/10/30 02:02:56;;;;;;;12.68;5.57;;;;;;;;;;4924857;29;20036;-77
2022/10/30 02:05:31;;;;;;;13.40;5.35;;;;;;;;;;4925627;29;20030;-76
2022/10/30 02:07:57;;;;;;;11.70;5.70;;;;;;;;;;4911684;29;20502;-76
2022/10/30 02:10:25;;;;;;;10.27;5.65;;;;;;;;;;4925216;29;20033;-76
2022/10/30 02:12:52;;;;;;;11.73;5.05;;;;;;;;;;4928087;29;20814;-76
2022/10/30 02:15:17;;;;;;;10.52;6.13;;;;;;;;;;4928310;29;20055;-77
2022/10/30 02:17:43;;;;;;;10.63;5.32;;;;;;;;;;4908294;29;20127;-76
2022/10/30 02:20:21;;;;;;;13.32;5.60;;;;;;;;;;4910308;29;20031;-76
2022/10/30 02:22:47;;;;;;;8.65;5.20;;;;;;;;;;4910155;29;20028;-76
2022/10/30 02:25:13;;;;;;;11.45;5.20;;;;;;;;;;4928402;29;20083;-77
2022/10/30 02:27:38;;;;;;;11.05;5.00;;;;;;;;;;4925071;29;20564;-77
2022/10/30 02:30:04;;;;;;;9.70;5.03;;;;;;;;;;4911574;29;20140;-77
2022/10/30 02:32:30;;;;;;;8.18;5.35;;;;;;;;;;4931627;29;20505;-77
2022/10/30 02:34:55;;;;;;;14.60;5.68;;;;;;;;;;4922113;29;20039;-77
2022/10/30 02:37:21;;;;;;;10.45;5.18;;;;;;;;;;4912564;29;20052;-77
2022/10/30 02:39:46;;;;;;;9.82;5.53;;;;;;;;;;4913723;29;20036;-77
2022/10/30 02:42:11;;;;;;;10.65;5.25;;;;;;;;;;4911086;29;20696;-77
2022/10/30 02:44:37;;;;;;;9.32;5.07;;;;;;;;;;4923970;29;20391;-76
2022/10/30 02:47:02;;;;;;;11.05;5.25;;;;;;;;;;4931538;29;20163;-76
2022/10/30 02:49:28;;;;;;;13.90;5.70;;;;;;;;;;4911686;29;20024;-76
2022/10/30 02:51:53;;;;;;;8.57;5.18;;;;;;;;;;4929793;29;20393;-77
2022/10/30 02:54:18;;;;;;;9.35;5.32;;;;;;;;;;4911913;29;20035;-77
2022/10/30 02:56:44;;;;;;;13.80;5.28;;;;;;;;;;4928382;29;20034;-77
2022/10/30 02:59:09;;;;;;;11.10;5.57;;;;;;;;;;4925529;29;20062;-76
2022/10/30 03:01:34;;;;;;;10.05;5.22;;;;;;;;;;4930076;29;20388;-77
2022/10/30 03:04:00;;;;;;;8.63;4.72;;;;;;;;;;4929780;29;20511;-76
2022/10/30 03:06:25;;;;;;;12.52;5.40;;;;;;;;;;4928384;29;20035;-76
2022/10/30 03:08:51;;;;;;;9.30;5.20;;;;;;;;;;4926019;29;20063;-77
2022/10/30 03:11:18;;;;;;;9.55;5.20;;;;;;;;;;4928851;29;20055;-76
2022/10/30 03:13:45;;;;;;;9.50;4.65;;;;;;;;;;4928500;29;20154;-76
2022/10/30 03:16:11;;;;;;;11.55;5.30;;;;;;;;;;4926288;29;20028;-76
2022/10/30 03:18:38;;;;;;;9.68;4.72;;;;;;;;;;4923611;29;20039;-76
2022/10/30 03:21:05;;;;;;;11.93;5.10;;;;;;;;;;4914331;29;20506;-76
2022/10/30 03:23:31;;;;;;;9.65;5.00;;;;;;;;;;4910326;29;20042;-77
2022/10/30 03:25:57;;;;;;;9.55;4.85;;;;;;;;;;4927747;29;20063;-76
2022/10/30 03:28:26;;;;;;;8.95;4.82;;;;;;;;;;4910797;29;20023;-77
2022/10/30 03:30:57;;;;;;;11.38;5.65;;;;;;;;;;4910676;29;20603;-77
2022/10/30 03:33:23;;;;;;;9.80;5.00;;;;;;;;;;4911418;29;20532;-76
2022/10/30 03:35:48;;;;;;;9.48;5.00;;;;;;;;;;4924788;29;20111;-77
2022/10/30 03:38:13;;;;;;;12.45;5.45;;;;;;;;;;4928322;29;20024;-77
2022/10/30 03:40:40;;;;;;;12.75;5.78;;;;;;;;;;4925293;29;21050;-76
2022/10/30 03:43:05;;;;;;;10.02;5.80;;;;;;;;;;4931736;29;20039;-76
2022/10/30 03:45:32;;;;;;;13.77;5.30;;;;;;;;;;4917459;29;20028;-77
2022/10/30 03:47:59;;;;;;;10.70;5.45;;;;;;;;;;4916402;29;20361;-76
2022/10/30 03:50:25;;;;;;;11.65;5.50;;;;;;;;;;4926394;29;20035;-77
2022/10/30 03:52:52;;;;;;;12.27;5.25;;;;;;;;;;4927254;29;20515;-77
2022/10/30 03:55:18;;;;;;;12.13;5.50;;;;;;;;;;4925727;29;20038;-77
2022/10/30 03:57:43;;;;;;;10.70;5.72;;;;;;;;;;4914042;29;20035;-76
2022/10/30 04:00:09;;;;;;;9.55;5.40;;;;;;;;;;4931182;29;20064;-77
2022/10/30 04:02:35;;;;;;;13.50;5.25;;;;;;;;;;4914981;29;20491;-76
2022/10/30 04:05:00;;;;;;;11.32;5.88;;;;;;;;;;4915130;29;20028;-76
2022/10/30 04:07:25;;;;;;;11.38;5.40;;;;;;;;;;4929612;29;20440;-76
2022/10/30 04:09:51;;;;;;;12.82;5.60;;;;;;;;;;4930147;29;20054;-77
2022/10/30 04:12:16;;;;;;;8.52;4.93;;;;;;;;;;4928255;29;20032;-77
2022/10/30 04:14:41;;;;;;;9.77;5.72;;;;;;;;;;4931740;29;20036;-77
2022/10/30 04:17:07;;;;;;;10.23;5.25;;;;;;;;;;4915008;29;20035;-77
2022/10/30 04:19:32;;;;;;;9.15;5.15;;;;;;;;;;4929714;29;20031;-77
2022/10/30 04:21:57;;;;;;;12.13;6.10;;;;;;;;;;4929270;29;20373;-77
2022/10/30 04:24:23;;;;;;;8.88;5.07;;;;;;;;;;4913319;29;20506;-77
2022/10/30 04:26:48;;;;;;;11.63;6.28;;;;;;;;;;4915148;29;20126;-77
2022/10/30 04:29:14;;;;;;;12.45;5.13;;;;;;;;;;4916650;29;20043;-77
2022/10/30 04:31:39;;;;;;;9.45;5.35;;;;;;;;;;4925125;29;20420;-77
2022/10/30 04:34:05;;;;;;;11.25;5.28;;;;;;;;;;4917271;29;20162;-77
2022/10/30 04:36:32;;;;;;;10.38;5.78;;;;;;;;;;4913001;29;20041;-77
2022/10/30 04:38:58;;;;;;;9.85;5.45;;;;;;;;;;4926524;29;20042;-78
2022/10/30 04:41:24;;;;;;;11.57;5.50;;;;;;;;;;4924540;29;20032;-78
2022/10/30 04:43:50;;;;;;;12.57;5.55;;;;;;;;;;4910731;29;20123;-77
2022/10/30 04:46:16;;;;;;;9.95;5.45;;;;;;;;;;4930069;29;20027;-77
2022/10/30 04:48:42;;;;;;;10.73;5.78;;;;;;;;;;4929623;29;20043;-77
2022/10/30 04:51:08;;;;;;;12.75;6.13;;;;;;;;;;4925989;29;20477;-77
2022/10/30 04:53:34;;;;;;;9.55;5.22;;;;;;;;;;4923796;29;20118;-77
2022/10/30 04:55:59;;;;;;;8.90;5.35;;;;;;;;;;4924207;29;20500;-77
2022/10/30 04:58:24;;;;;;;12.20;5.68;;;;;;;;;;4921999;29;20083;-77
2022/10/30 05:00:50;;;;;;;11.27;5.25;;;;;;;;;;4930396;29;20040;-77
2022/10/30 05:03:21;;;;;;;10.27;5.03;;;;;;;;;;4912902;29;20020;-78
2022/10/30 05:06:04;;;;;;;8.73;5.53;;;;;;;;;;4912539;29;20483;-77
2022/10/30 05:08:30;;;;;;;12.80;5.97;;;;;;;;;;4913176;29;20111;-78
2022/10/30 05:10:56;;;;;;;13.80;5.68;;;;;;;;;;4929753;29;20565;-78
2022/10/30 05:13:21;;;;;;;13.73;5.70;;;;;;;;;;4930873;29;20050;-77
2022/10/30 05:15:47;;;;;;;13.57;5.70;;;;;;;;;;4926716;29;20060;-77
2022/10/30 05:18:12;;;;;;;12.30;5.53;;;;;;;;;;4930145;29;20028;-76
2022/10/30 05:20:37;;;;;;;11.65;5.78;;;;;;;;;;4927121;29;20035;-76
2022/10/30 05:23:03;;;;;;;10.20;5.53;;;;;;;;;;4929440;29;20158;-77
2022/10/30 05:25:29;;;;;;;13.57;6.38;;;;;;;;;;4928828;29;20488;-77
2022/10/30 05:27:59;;;;;;;13.20;5.82;;;;;;;;;;4911532;29;20039;-77
2022/10/30 05:30:29;;;;;;;13.65;5.57;;;;;;;;;;4911724;29;20031;-77
2022/10/30 05:33:04;;;;;;;11.65;5.88;;;;;;;;;;4912911;29;20492;-77
2022/10/30 05:35:33;;;;;;;10.02;6.05;;;;;;;;;;4926525;29;20035;-77
2022/10/30 05:38:00;;;;;;;10.63;5.88;;;;;;;;;;4923518;29;21390;-77
2022/10/30 05:40:26;;;;;;;14.05;5.75;;;;;;;;;;4914674;29;20035;-78
2022/10/30 05:42:51;;;;;;;9.77;5.55;;;;;;;;;;4927531;29;20032;-77
2022/10/30 05:45:17;;;;;;;10.02;6.22;;;;;;;;;;4913155;29;20071;-77
2022/10/30 05:47:43;;;;;;;10.95;5.63;;;;;;;;;;4909989;29;20028;-77
2022/10/30 05:50:10;;;;;;;13.02;5.53;;;;;;;;;;4909513;29;20444;-77
2022/10/30 05:52:35;;;;;;;9.50;5.20;;;;;;;;;;4930860;29;20469;-77
2022/10/30 05:55:01;;;;;;;7.80;5.28;;;;;;;;;;4910824;29;20039;-77
2022/10/30 05:57:28;;;;;;;13.15;5.88;;;;;;;;;;4911402;29;20027;-77
2022/10/30 05:59:53;;;;;;;10.98;5.50;;;;;;;;;;4912792;29;20492;-77
2022/10/30 06:02:19;;;;;;;10.15;5.50;;;;;;;;;;4926722;29;20034;-77
2022/10/30 06:04:44;;;;;;;11.30;5.88;;;;;;;;;;4912228;29;20043;-77
2022/10/30 06:07:10;;;;;;;11.10;5.68;;;;;;;;;;4924486;29;20560;-77
2022/10/30 06:09:35;;;;;;;10.15;5.57;;;;;;;;;;4911197;29;20024;-77
2022/10/30 06:12:01;;;;;;;11.32;5.20;;;;;;;;;;4908121;29;20027;-77
2022/10/30 06:14:27;;;;;;;9.38;5.20;;;;;;;;;;4928147;29;20503;-77
2022/10/30 06:16:52;;;;;;;14.10;5.38;;;;;;;;;;4923245;29;20070;-77
2022/10/30 06:19:17;;;;;;;9.48;5.53;;;;;;;;;;4925855;29;20039;-77
2022/10/30 06:21:43;;;;;;;13.35;5.30;;;;;;;;;;4927703;29;20035;-77
2022/10/30 06:24:08;;;;;;;10.13;5.13;;;;;;;;;;4926885;29;20539;-77
2022/10/30 06:26:34;;;;;;;11.13;5.57;;;;;;;;;;4929110;29;20063;-77
2022/10/30 06:28:59;;;;;;;11.15;5.72;;;;;;;;;;4927286;29;20032;-77
2022/10/30 06:31:24;;;;;;;10.27;5.35;;;;;;;;;;4926852;29;20028;-77
2022/10/30 06:33:50;;;;;;;12.70;6.10;;;;;;;;;;4913636;29;20027;-76
2022/10/30 06:36:16;;;;;;;9.75;5.50;;;;;;;;;;4928463;29;20156;-78
2022/10/30 06:38:42;;;;;;;10.93;5.80;;;;;;;;;;4928902;29;20035;-77
2022/10/30 06:41:07;;;;;;;10.48;5.50;;;;;;;;;;4926220;29;20032;-78
2022/10/30 06:43:33;;;;;;;11.55;5.68;;;;;;;;;;4908756;29;20115;-77
2022/10/30 06:45:58;;;;;;;11.05;5.75;;;;;;;;;;4929401;29;20032;-77
2022/10/30 06:48:26;;;;;;;9.23;5.32;;;;;;;;;;4930261;29;20027;-77
2022/10/30 06:50:56;;;;;;;11.93;5.85;;;;;;;;;;4923558;29;20476;-77
2022/10/30 06:53:22;;;;;;;12.38;5.53;;;;;;;;;;4925317;29;20119;-77
2022/10/30 06:55:58;;;;;;;11.43;6.00;;;;;;;;;;4926855;29;20110;-77
2022/10/30 06:58:24;;;;;;;11.75;5.50;;;;;;;;;;4923991;29;20032;-78
2022/10/30 07:00:50;;;;;;;11.55;6.18;;;;;;;;;;4910203;29;20027;-78
2022/10/30 07:03:16;;;;;;;9.70;5.95;;;;;;;;;;4929837;29;20472;-77
2022/10/30 07:05:42;;;;;;;10.95;6.00;;;;;;;;;;4910382;29;20051;-77
2022/10/30 07:08:07;;;;;;;12.27;5.72;;;;;;;;;;4925912;29;20030;-77
2022/10/30 07:10:33;;;;;;;10.85;6.25;;;;;;;;;;4907197;29;20562;-77
2022/10/30 07:12:58;;;;;;;11.82;5.95;;;;;;;;;;4928217;29;20058;-77
2022/10/30 07:15:24;;;;;;;10.70;6.40;;;;;;;;;;4927238;29;20040;-77
2022/10/30 07:18:03;;;;;;;9.38;6.03;;;;;;;;;;4929352;29;20476;-76
2022/10/30 07:20:32;;;;;;;10.27;6.43;;;;;;;;;;4915897;29;20031;-77
2022/10/30 07:22:57;;;;;;;12.15;5.90;;;;;;;;;;4917560;29;20388;-76
2022/10/30 07:25:22;;;;;;;12.80;6.60;;;;;;;;;;4914587;29;21769;-77
2022/10/30 07:27:50;;;;;;;12.38;6.68;;;;;;;;;;4917648;29;20448;-78
2022/10/30 07:30:17;;;;;;;11.93;6.10;;;;;;;;;;4933394;29;20663;-77
2022/10/30 07:32:43;;;;;;;15.90;7.32;;;;;;;;;;4914996;29;20075;-76
2022/10/30 07:35:13;;;;;;;12.43;6.55;;;;;;;;;;4915529;29;20036;-77
2022/10/30 07:37:39;;;;;;;13.60;6.45;;;;;;;;;;4928882;29;20118;-77
2022/10/30 07:40:06;;;;;;;11.00;5.75;;;;;;;;;;4928737;29;20122;-76
2022/10/30 07:42:32;;;;;;;10.57;5.68;;;;;;;;;;4931853;29;20035;-76
2022/10/30 07:44:57;;;;;;;10.45;6.35;;;;;;;;;;4931500;29;20051;-77
2022/10/30 07:47:22;;;;;;;11.20;5.95;;;;;;;;;;4924927;29;20028;-77
2022/10/30 07:49:48;;;;;;;12.63;6.15;;;;;;;;;;4931967;29;20389;-77
2022/10/30 07:52:13;;;;;;;12.00;6.00;;;;;;;;;;4913560;29;20027;-77
2022/10/30 07:54:38;;;;;;;17.08;6.95;;;;;;;;;;4931453;29;20059;-77
2022/10/30 07:57:04;;;;;;;9.43;6.53;;;;;;;;;;4913297;29;20028;-77
2022/10/30 07:59:29;;;;;;;14.95;7.70;;;;;;;;;;4905362;29;20051;-77
2022/10/30 08:01:59;;;;;;;13.30;6.50;;;;;;;;;;4912916;29;20030;-77
2022/10/30 08:04:25;;;;;;;12.77;7.13;;;;;;;;;;4916921;29;20476;-77
2022/10/30 08:06:50;;;;;;;12.10;7.38;;;;;;;;;;4917459;29;20038;-77
2022/10/30 08:09:15;;;;;;;10.88;6.93;;;;;;;;;;4911900;29;20649;-77
2022/10/30 08:11:44;;;;;;;15.45;8.57;;;;;;;;;;4927589;29;20040;-77
2022/10/30 08:14:09;;;;;;;12.25;7.47;;;;;;;;;;4929933;29;20079;-78
2022/10/30 08:16:34;;;;;;;12.77;7.13;;;;;;;;;;4930715;29;20388;-77
2022/10/30 08:19:00;;;;;;;11.98;8.23;;;;;;;;;;4932711;29;20052;-77
2022/10/30 08:21:25;;;;;;;12.05;7.93;;;;;;;;;;4918507;29;20028;-77
2022/10/30 08:23:51;;;;;;;17.52;7.95;;;;;;;;;;4934216;29;20035;-76
2022/10/30 08:26:16;;;;;;;12.52;7.78;;;;;;;;;;4916264;29;20055;-76
2022/10/30 08:28:41;;;;;;;15.57;9.13;;;;;;;;;;4910979;29;20076;-76
2022/10/30 08:31:07;;;;;;;15.88;8.25;;;;;;;;;;4915032;29;20036;-76
2022/10/30 08:33:32;;;;;;;14.15;8.70;;;;;;;;;;4925415;29;20165;-77
2022/10/30 08:35:58;;;;;;;15.43;8.43;;;;;;;;;;4919296;29;20032;-76
2022/10/30 08:38:25;;;;;;;16.08;8.02;;;;;;;;;;4909644;29;20031;-76
2022/10/30 08:40:50;;;;;;;14.20;8.38;;;;;;;;;;4908773;29;20032;-76
2022/10/30 08:43:16;;;;;;;14.88;8.63;;;;;;;;;;4901945;29;20028;-77
2022/10/30 08:45:41;;;;;;;15.52;8.25;;;;;;;;;;4915703;29;20051;-77
2022/10/30 08:48:10;;;;;;;14.50;9.23;;;;;;;;;;4911535;29;20073;-77
2022/10/30 08:50:35;;;;;;;16.75;8.65;;;;;;;;;;4917507;29;20032;-76
2022/10/30 08:53:11;;;;;;;17.02;8.40;;;;;;;;;;4915377;29;20036;-77
2022/10/30 08:55:37;;;;;;;14.10;8.35;;;;;;;;;;4914682;29;20035;-77
2022/10/30 08:58:03;;;;;;;16.40;8.48;;;;;;;;;;4913576;29;20036;-76
2022/10/30 09:00:28;;;;;;;11.82;7.90;;;;;;;;;;4912634;29;20095;-76
2022/10/30 09:02:54;;;;;;;13.85;7.88;;;;;;;;;;4913905;29;20039;-77
2022/10/30 09:05:19;;;;;;;13.57;7.93;;;;;;;;;;4911419;29;20035;-77
2022/10/30 09:07:45;;;;;;;12.57;7.85;;;;;;;;;;4929173;29;20397;-77
2022/10/30 09:10:11;;;;;;;12.50;7.80;;;;;;;;;;4910112;29;20111;-76
2022/10/30 09:12:36;;;;;;;14.05;7.55;;;;;;;;;;4912800;29;20560;-77
2022/10/30 09:15:02;;;;;;;14.48;8.43;;;;;;;;;;4913407;29;20500;-76
2022/10/30 09:17:28;;;;;;;15.18;7.95;;;;;;;;;;4915093;29;20042;-77
2022/10/30 09:19:53;;;;;;;15.02;8.50;;;;;;;;;;4915061;29;20032;-77
2022/10/30 09:22:19;;;;;;;15.25;8.00;;;;;;;;;;4924565;29;20055;-77
2022/10/30 09:24:44;;;;;;;13.70;8.00;;;;;;;;;;4906315;29;20039;-77
2022/10/30 09:27:09;;;;;;;17.48;8.27;;;;;;;;;;4919019;29;20051;-77
2022/10/30 09:29:35;;;;;;;13.93;7.93;;;;;;;;;;4924218;29;20027;-77
2022/10/30 09:32:03;;;;;;;15.10;8.30;;;;;;;;;;4923603;29;20544;-77
2022/10/30 09:34:29;;;;;;;16.17;8.32;;;;;;;;;;4924992;29;20059;-76
2022/10/30 09:36:55;;;;;;;15.88;7.95;;;;;;;;;;4923021;29;20571;-77
2022/10/30 09:39:20;;;;;;;14.60;7.80;;;;;;;;;;4927419;29;20031;-77
2022/10/30 09:42:01;;;;;;;15.38;7.82;;;;;;;;;;4925811;29;20036;-76
2022/10/30 09:44:47;;;;;;;16.02;7.35;;;;;;;;;;4930822;29;20472;-77
2022/10/30 09:47:19;;;;;;;16.20;8.68;;;;;;;;;;4927536;29;20024;-77
2022/10/30 09:50:15;;;;;;;14.25;7.57;;;;;;;;;;4933572;29;20031;-76
2022/10/30 09:53:15;;;;;;;12.07;7.38;;;;;;;;;;4919712;29;20130;-76
2022/10/30 09:55:58;;;;;;;15.77;7.40;;;;;;;;;;4920467;29;20122;-77
2022/10/30 09:58:48;;;;;;;12.35;7.40;;;;;;;;;;4911802;29;20028;-76
2022/10/30 10:01:25;;;;;;;14.93;7.65;;;;;;;;;;4928789;29;20031;-77
2022/10/30 10:04:10;;;;;;;17.48;7.65;;;;;;;;;;4924706;29;20641;-77
2022/10/30 10:06:40;;;;;;;13.60;8.38;;;;;;;;;;4910932;29;20078;-77
2022/10/30 10:09:18;;;;;;;18.02;8.00;;;;;;;;;;4911065;29;20054;-76
2022/10/30 10:11:51;;;;;;;15.75;8.07;;;;;;;;;;4913713;29;20074;-76
2022/10/30 10:14:22;;;;;;;14.25;7.85;;;;;;;;;;4925388;29;20032;-76
2022/10/30 10:16:51;;;;;;;15.18;7.82;;;;;;;;;;4930373;29;20035;-77
2022/10/30 10:19:26;;;;;;;18.08;8.43;;;;;;;;;;4932177;29;20062;-76
2022/10/30 10:21:54;;;;;;;15.68;8.15;;;;;;;;;;4930154;29;20465;-76
2022/10/30 10:24:26;;;;;;;17.88;7.68;;;;;;;;;;4930984;29;20036;-77
2022/10/30 10:27:16;;;;;;;16.85;7.82;;;;;;;;;;4929497;29;20060;-76
2022/10/30 10:30:11;;;;;;;16.90;7.45;;;;;;;;;;4932243;29;20031;-77
2022/10/30 10:32:59;;;;;;;16.02;7.35;;;;;;;;;;4928048;29;20040;-76
2022/10/30 10:35:30;;;;;;;14.60;7.13;;;;;;;;;;4929072;29;20757;-77
2022/10/30 10:38:11;;;;;;;14.63;7.97;;;;;;;;;;4932173;29;20027;-77
2022/10/30 10:41:10;;;;;;;16.45;8.00;;;;;;;;;;4932838;29;20407;-77
2022/10/30 10:43:59;;;;;;;13.70;6.97;;;;;;;;;;4920414;29;20492;-76
2022/10/30 10:46:48;;;;;;;13.57;6.07;;;;;;;;;;4926491;29;20023;-77
2022/10/30 10:49:29;;;;;;;11.68;6.63;;;;;;;;;;4924955;29;20477;-76
2022/10/30 10:51:59;;;;;;;13.35;6.13;;;;;;;;;;4915400;29;20024;-77
2022/10/30 10:54:30;;;;;;;14.07;6.72;;;;;;;;;;4927496;29;20784;-77
2022/10/30 10:56:58;;;;;;;14.73;6.35;;;;;;;;;;4933896;29;20551;-76
2022/10/30 10:59:43;;;;;;;14.50;6.60;;;;;;;;;;4920406;29;20399;-76
2022/10/30 11:02:30;;;;;;;13.98;6.20;;;;;;;;;;4925827;29;20234;-76
2022/10/30 11:05:04;;;;;;;12.48;6.00;;;;;;;;;;4932797;29;20611;-76
2022/10/30 11:07:34;;;;;;;11.32;5.85;;;;;;;;;;4911426;29;20083;-77
2022/10/30 11:10:00;;;;;;;14.20;6.75;;;;;;;;;;4931089;29;20032;-77
2022/10/30 11:12:33;;;;;;;11.98;6.38;;;;;;;;;;4928122;29;20167;-77
2022/10/30 11:15:06;;;;;;;12.85;6.78;;;;;;;;;;4932141;29;20089;-77
2022/10/30 11:17:41;;;;;;;9.15;6.38;;;;;;;;;;4929385;29;20043;-78
2022/10/30 11:20:30;;;;;;;15.75;6.53;;;;;;;;;;4933100;29;20035;-76
2022/10/30 11:22:55;;;;;;;14.20;6.18;;;;;;;;;;4916828;29;21886;-77
2022/10/30 11:25:31;;;;;;;13.40;6.38;;;;;;;;;;4920496;29;20122;-76
2022/10/30 11:28:01;;;;;;;19.92;6.45;;;;;;;;;;4925047;29;20131;-77
2022/10/30 11:30:27;;;;;;;14.02;6.63;;;;;;;;;;4928331;29;20024;-76
2022/10/30 11:32:58;;;;;;;12.68;6.22;;;;;;;;;;4932617;29;20396;-76
2022/10/30 11:35:24;;;;;;;12.20;5.30;;;;;;;;;;4934008;29;20110;-78
2022/10/30 11:38:17;;;;;;;11.20;6.05;;;;;;;;;;4932494;29;20064;-77
2022/10/30 11:40:47;;;;;;;11.70;5.97;;;;;;;;;;4936059;29;20035;-77
2022/10/30 11:43:17;;;;;;;11.10;6.15;;;;;;;;;;4911036;29;20083;-76
2022/10/30 11:45:43;;;;;;;12.35;5.78;;;;;;;;;;4929839;29;20071;-77
2022/10/30 11:48:19;;;;;;;12.65;6.30;;;;;;;;;;4929159;29;20060;-76
2022/10/30 11:50:48;;;;;;;12.98;6.50;;;;;;;;;;4927731;29;20040;-76
2022/10/30 11:53:29;;;;;;;9.82;5.78;;;;;;;;;;4926083;29;20035;-76
2022/10/30 11:55:56;;;;;;;12.00;5.63;;;;;;;;;;4926206;29;20141;-77
2022/10/30 11:58:44;;;;;;;11.27;5.45;;;;;;;;;;4919325;29;20036;-76
2022/10/30 12:01:23;;;;;;;12.63;6.18;;;;;;;;;;4931484;29;20047;-76
2022/10/30 12:03:49;;;;;;;11.40;5.93;;;;;;;;;;4925834;29;20120;-77
2022/10/30 12:06:26;;;;;;;20.40;6.68;;;;;;;;;;4931572;29;20451;-77
2022/10/30 12:09:18;;;;;;;12.80;5.75;;;;;;;;;;4931233;29;20023;-77
2022/10/30 12:11:44;;;;;;;13.38;5.93;;;;;;;;;;4931007;29;20036;-76
2022/10/30 12:14:19;;;;;;;15.57;6.22;;;;;;;;;;4910700;29;20041;-77
2022/10/30 12:16:50;;;;;;;11.27;6.00;;;;;;;;;;4908691;29;20040;-76
2022/10/30 12:19:18;;;;;;;11.32;5.75;;;;;;;;;;4931312;29;20034;-76
2022/10/30 12:21:50;;;;;;;13.20;6.57;;;;;;;;;;4924514;29;20118;-76
2022/10/30 12:24:37;;;;;;;10.82;6.03;;;;;;;;;;4932174;29;20035;-77
2022/10/30 12:27:11;;;;;;;10.38;6.32;;;;;;;;;;4932554;29;20040;-76
2022/10/30 12:29:56;;;;;;;15.65;6.97;;;;;;;;;;4918850;29;20039;-77
2022/10/30 12:32:27;;;;;;;15.63;6.63;;;;;;;;;;4932245;29;20492;-76
2022/10/30 12:35:00;;;;;;;14.07;7.80;;;;;;;;;;4912354;29;20031;-77
2022/10/30 12:37:36;;;;;;;14.63;7.25;;;;;;;;;;4929828;29;20036;-77
2022/10/30 12:40:10;;;;;;;11.18;7.07;;;;;;;;;;4932118;29;20032;-76
2022/10/30 12:42:50;;;;;;;16.73;8.02;;;;;;;;;;4916287;29;20042;-77
2022/10/30 12:45:22;;;;;;;16.33;7.43;;;;;;;;;;4933842;29;20046;-77
2022/10/30 12:47:58;;;;;;;15.70;7.32;;;;;;;;;;4934541;29;20392;-76
2022/10/30 12:51:02;;;;;;;12.48;7.07;;;;;;;;;;4932468;29;20470;-76
2022/10/30 12:53:34;;;;;;;14.75;6.85;;;;;;;;;;4927908;29;20121;-77
2022/10/30 12:56:07;;;;;;;15.73;7.85;;;;;;;;;;4927978;29;20036;-76
2022/10/30 12:58:33;;;;;;;;;;;;;;;;;;4929479;29;20404;-76
2022/10/30 13:01:28;;;;;;;10.53;6.43;;;;;;;;;;4929382;29;19922;-77
2022/10/30 13:04:22;;;;;;;15.13;6.53;;;;;;;;;;4918316;29;20046;-76
2022/10/30 13:06:59;;;;;;;10.93;6.43;;;;;;;;;;4914608;29;20046;-77
2022/10/30 13:09:36;;;;;;;12.43;6.32;;;;;;;;;;4928608;29;20479;-78
2022/10/30 13:12:10;;;;;;;11.25;6.70;;;;;;;;;;4917783;29;20028;-76
2022/10/30 13:14:41;;;;;;;11.80;6.05;;;;;;;;;;4934701;29;20027;-77
2022/10/30 13:17:11;;;;;;;14.65;6.90;;;;;;;;;;4930039;29;20452;-76
2022/10/30 13:19:40;;;;;;;10.90;5.93;;;;;;;;;;4916344;29;20436;-76
2022/10/30 13:22:12;;;;;;;13.30;6.00;;;;;;;;;;4930830;29;20531;-77
2022/10/30 13:25:13;;;;;;;12.65;5.82;;;;;;;;;;4934210;29;20039;-77
2022/10/30 13:27:55;;;;;;;10.25;5.28;;;;;;;;;;4901426;29;20384;-76
2022/10/30 13:30:24;;;;;;;12.15;4.97;;;;;;;;;;4916519;29;20390;-77
2022/10/30 13:32:52;;;;;;;12.05;4.78;;;;;;;;;;4913049;29;20054;-76
2022/10/30 13:35:34;;;;;;;11.48;4.80;;;;;;;;;;4912280;29;20518;-76
2022/10/30 13:38:09;;;;;;;12.03;4.43;;;;;;;;;;4914548;29;20036;-76
2022/10/30 13:40:49;;;;;;;10.85;4.07;;;;;;;;;;4912258;29;20028;-76
2022/10/30 13:43:33;;;;;;;11.68;4.13;;;;;;;;;;4925906;29;20433;-76
2022/10/30 13:46:06;;;;;;;;;;;;;;;;;;4929296;29;20028;-76
2022/10/30 13:49:09;;;;;;;10.27;4.03;;;;;;;;;;4915257;29;19922;-76
2022/10/30 13:52:00;;;;;;;9.70;3.90;;;;;;;;;;4907244;29;20024;-76
2022/10/30 13:54:37;;;;;;;6.90;3.58;;;;;;;;;;4915129;29;20036;-78
2022/10/30 13:57:12;;;;;;;12.30;4.25;;;;;;;;;;4910094;29;20044;-76
2022/10/30 14:00:12;;;;;;;9.95;4.47;;;;;;;;;;4913494;29;20453;-76
2022/10/30 14:02:55;;;;;;;6.95;3.88;;;;;;;;;;4910442;29;20067;-76
2022/10/30 14:05:28;;;;;;;10.93;4.72;;;;;;;;;;4910275;29;20476;-76
2022/10/30 14:08:07;;;;;;;10.00;4.50;;;;;;;;;;4912915;29;20067;-76
2022/10/30 14:10:46;;;;;;;12.35;4.40;;;;;;;;;;4921121;29;20508;-76
2022/10/30 14:13:26;;;;;;;9.75;4.55;;;;;;;;;;4909306;29;20032;-76
2022/10/30 14:16:00;;;;;;;8.70;4.18;;;;;;;;;;4919654;29;20028;-76
2022/10/30 14:18:31;;;;;;;9.13;4.43;;;;;;;;;;4922968;29;20501;-77
2022/10/30 14:20:58;;;;;;;11.82;4.45;;;;;;;;;;4910125;29;20393;-77
2022/10/30 14:23:29;;;;;;;9.57;4.20;;;;;;;;;;4909801;29;20042;-77
2022/10/30 14:26:01;;;;;;;8.52;4.20;;;;;;;;;;4918357;29;20052;-76
2022/10/30 14:28:27;;;;;;;10.13;4.22;;;;;;;;;;4928480;29;20028;-77
2022/10/30 14:31:30;;;;;;;11.60;5.00;;;;;;;;;;4910676;29;20183;-76
2022/10/30 14:33:56;;;;;;;11.80;4.50;;;;;;;;;;4917885;29;20028;-77
2022/10/30 14:36:25;;;;;;;13.18;4.80;;;;;;;;;;4930841;29;20087;-77
2022/10/30 14:39:20;;;;;;;9.00;4.40;;;;;;;;;;4934152;29;20434;-76
2022/10/30 14:42:10;;;;;;;11.57;4.32;;;;;;;;;;4910384;29;20035;-76
2022/10/30 14:45:00;;;;;;;12.07;5.07;;;;;;;;;;4926245;29;20562;-77
2022/10/30 14:47:40;;;;;;;12.65;4.68;;;;;;;;;;4927103;29;20524;-76
2022/10/30 14:50:30;;;;;;;13.25;4.65;;;;;;;;;;4930290;29;20027;-76
2022/10/30 14:53:17;;;;;;;9.68;4.38;;;;;;;;;;4928089;29;20030;-77
2022/10/30 14:55:57;;;;;;;13.85;4.85;;;;;;;;;;4919651;29;20055;-77
2022/10/30 14:58:25;;;;;;;8.82;4.20;;;;;;;;;;4930227;29;20512;-77